createdAt,value
2017-08-05T00:00:48.555Z,1000.27
2017-08-05T00:01:48.196Z,1000.27
2017-08-05T00:02:48.172Z,1000.25
2017-08-05T00:03:48.176Z,1000.28
2017-08-05T00:04:48.157Z,1000.26
2017-08-05T00:05:48.150Z,1000.27
2017-08-05T00:06:48.174Z,1000.26
2017-08-05T00:07:48.134Z,1000.27
2017-08-05T00:08:48.128Z,1000.27
2017-08-05T00:09:48.123Z,1000.29
2017-08-05T00:10:48.121Z,1000.32
2017-08-05T00:11:48.527Z,1000.31
2017-08-05T00:12:48.109Z,1000.31
2017-08-05T00:13:48.094Z,1000.28
2017-08-05T00:14:48.988Z,1000.28
2017-08-05T00:15:48.083Z,1000.27
2017-08-05T00:16:48.078Z,1000.27
2017-08-05T00:17:48.100Z,1000.25
2017-08-05T00:18:48.061Z,1000.26
2017-08-05T00:19:48.049Z,1000.27
2017-08-05T00:20:48.049Z,1000.24
2017-08-05T00:21:48.359Z,1000.25
2017-08-05T00:22:48.032Z,1000.29
2017-08-05T00:23:48.025Z,1000.29
2017-08-05T00:24:48.005Z,1000.30
2017-08-05T00:25:48.000Z,1000.30
2017-08-05T00:26:48.012Z,1000.29
2017-08-05T00:27:48.368Z,1000.27
2017-08-05T00:28:47.988Z,1000.27
2017-08-05T00:29:47.984Z,1000.25
2017-08-05T00:30:47.973Z,1000.28
2017-08-05T00:31:47.971Z,1000.28
2017-08-05T00:32:47.971Z,1000.30
2017-08-05T00:33:47.975Z,1000.30
2017-08-05T00:34:47.946Z,1000.33
2017-08-05T00:35:47.926Z,1000.33
2017-08-05T00:36:48.257Z,1000.36
2017-08-05T00:37:47.913Z,1000.33
2017-08-05T00:38:47.910Z,1000.31
2017-08-05T00:39:47.910Z,1000.24
2017-08-05T00:40:47.891Z,1000.21
2017-08-05T00:41:47.889Z,1000.15
2017-08-05T00:42:48.315Z,1000.19
2017-08-05T00:43:47.889Z,1000.22
2017-08-05T00:44:47.861Z,1000.19
2017-08-05T00:45:47.870Z,1000.18
2017-08-05T00:46:47.859Z,1000.22
2017-08-05T00:47:47.851Z,1000.18
2017-08-05T00:48:48.293Z,1000.17
2017-08-05T00:49:47.842Z,1000.15
2017-08-05T00:50:47.839Z,1000.11
2017-08-05T00:51:47.810Z,1000.10
2017-08-05T00:52:47.805Z,1000.09
2017-08-05T00:53:47.808Z,1000.06
2017-08-05T00:54:48.021Z,1000.03
2017-08-05T00:55:47.780Z,1000.06
2017-08-05T00:56:47.774Z,1000.06
2017-08-05T00:57:47.778Z,1000.07
2017-08-05T00:58:47.769Z,1000.08
2017-08-05T00:59:47.756Z,1000.02
2017-08-05T01:00:48.070Z,1000.04
2017-08-05T01:01:47.751Z,1000.04
2017-08-05T01:02:47.743Z,1000.06
2017-08-05T01:03:47.722Z,1000.09
2017-08-05T01:04:47.732Z,1000.15
2017-08-05T01:05:47.705Z,1000.14
2017-08-05T01:06:48.026Z,1000.14
2017-08-05T01:07:47.702Z,1000.14
2017-08-05T01:08:47.686Z,1000.13
2017-08-05T01:09:47.705Z,1000.13
2017-08-05T01:10:47.685Z,1000.19
2017-08-05T01:11:47.686Z,1000.22
2017-08-05T01:12:48.058Z,1000.21
2017-08-05T01:13:47.662Z,1000.24
2017-08-05T01:14:47.639Z,1000.23
2017-08-05T01:15:47.643Z,1000.17
2017-08-05T01:16:47.637Z,1000.20
2017-08-05T01:17:47.628Z,1000.20
2017-08-05T01:18:47.646Z,1000.16
2017-08-05T01:19:47.615Z,1000.10
2017-08-05T01:20:47.984Z,1000.10
2017-08-05T01:21:47.601Z,1000.05
2017-08-05T01:22:47.590Z,1000.07
2017-08-05T01:23:47.585Z,1000.13
2017-08-05T01:24:47.571Z,1000.16
2017-08-05T01:25:47.558Z,1000.13
2017-08-05T01:26:47.586Z,1000.16
2017-08-05T01:27:47.554Z,1000.13
2017-08-05T01:28:47.533Z,1000.13
2017-08-05T01:29:47.526Z,1000.14
2017-08-05T01:30:47.534Z,1000.15
2017-08-05T01:31:47.878Z,1000.14
2017-08-05T01:32:47.522Z,1000.13
2017-08-05T01:33:47.516Z,1000.14
2017-08-05T01:34:47.491Z,1000.16
2017-08-05T01:35:47.501Z,1000.19
2017-08-05T01:36:47.477Z,1000.21
2017-08-05T01:37:47.796Z,1000.20
2017-08-05T01:38:47.472Z,1000.19
2017-08-05T01:39:47.456Z,1000.16
2017-08-05T01:40:47.453Z,1000.17
2017-08-05T01:41:47.457Z,1000.11
2017-08-05T01:42:47.435Z,1000.14
2017-08-05T01:43:47.794Z,1000.12
2017-08-05T01:44:47.425Z,1000.08
2017-08-05T01:45:47.421Z,1000.13
2017-08-05T01:46:47.408Z,1000.12
2017-08-05T01:47:47.398Z,1000.12
2017-08-05T01:48:47.391Z,1000.14
2017-08-05T01:49:47.852Z,1000.16
2017-08-05T01:50:47.378Z,1000.19
2017-08-05T01:51:47.368Z,1000.24
2017-08-05T01:52:47.361Z,1000.27
2017-08-05T01:53:47.359Z,1000.32
2017-08-05T01:54:47.346Z,1000.30
2017-08-05T01:55:47.666Z,1000.29
2017-08-05T01:56:47.331Z,1000.26
2017-08-05T01:57:47.320Z,1000.22
2017-08-05T01:58:47.321Z,1000.23
2017-08-05T01:59:47.308Z,1000.23
2017-08-05T02:00:47.297Z,1000.21
2017-08-05T02:01:47.750Z,1000.15
2017-08-05T02:02:47.281Z,1000.15
2017-08-05T02:03:47.280Z,1000.17
2017-08-05T02:04:47.256Z,1000.16
2017-08-05T02:05:47.249Z,1000.15
2017-08-05T02:06:47.243Z,1000.13
2017-08-05T02:07:47.629Z,1000.15
2017-08-05T02:08:47.237Z,1000.05
2017-08-05T02:09:47.227Z,999.97
2017-08-05T02:10:47.210Z,1000.00
2017-08-05T02:11:47.204Z,999.97
2017-08-05T02:12:47.190Z,999.95
2017-08-05T02:13:47.554Z,999.95
2017-08-05T02:14:47.184Z,999.94
2017-08-05T02:15:47.183Z,999.97
2017-08-05T02:16:47.173Z,1000.00
2017-08-05T02:17:47.164Z,1000.00
2017-08-05T02:18:47.156Z,1000.02
2017-08-05T02:19:47.186Z,1000.03
2017-08-05T02:20:47.145Z,1000.08
2017-08-05T02:21:47.118Z,1000.12
2017-08-05T02:22:47.128Z,1000.17
2017-08-05T02:23:47.414Z,1000.23
2017-08-05T02:24:47.112Z,1000.25
2017-08-05T02:25:47.222Z,1000.28
2017-08-05T02:26:47.079Z,1000.30
2017-08-05T02:27:47.074Z,1000.33
2017-08-05T02:28:47.078Z,1000.32
2017-08-05T02:29:47.494Z,1000.24
2017-08-05T02:30:47.060Z,1000.17
2017-08-05T02:31:47.043Z,1000.18
2017-08-05T02:32:47.036Z,1000.16
2017-08-05T02:33:47.037Z,1000.20
2017-08-05T02:34:47.016Z,1000.24
2017-08-05T02:35:47.393Z,1000.31
2017-08-05T02:36:47.013Z,1000.29
2017-08-05T02:37:46.993Z,1000.32
2017-08-05T02:38:46.986Z,1000.33
2017-08-05T02:39:46.979Z,1000.26
2017-08-05T02:40:46.968Z,1000.24
2017-08-05T02:41:47.006Z,1000.24
2017-08-05T02:42:46.967Z,1000.24
2017-08-05T02:43:47.939Z,1000.23
2017-08-05T02:44:46.949Z,1000.23
2017-08-05T02:45:46.935Z,1000.22
2017-08-05T02:46:46.936Z,1000.20
2017-08-05T02:47:46.913Z,1000.19
2017-08-05T02:48:46.909Z,1000.23
2017-08-05T02:49:47.286Z,1000.22
2017-08-05T02:50:46.902Z,1000.20
2017-08-05T02:51:46.889Z,1000.21
2017-08-05T02:52:46.885Z,1000.20
2017-08-05T02:53:46.874Z,1000.17
2017-08-05T02:54:46.869Z,1000.18
2017-08-05T02:55:47.302Z,1000.19
2017-08-05T02:56:46.851Z,1000.21
2017-08-05T02:57:46.846Z,1000.19
2017-08-05T02:58:46.835Z,1000.15
2017-08-05T02:59:46.841Z,1000.12
2017-08-05T03:00:46.808Z,1000.11
2017-08-05T03:01:47.168Z,1000.14
2017-08-05T03:02:46.797Z,1000.11
2017-08-05T03:03:46.799Z,1000.12
2017-08-05T03:04:46.793Z,1000.11
2017-08-05T03:05:46.796Z,1000.10
2017-08-05T03:06:46.785Z,1000.10
2017-08-05T03:07:47.126Z,1000.07
2017-08-05T03:08:46.751Z,1000.09
2017-08-05T03:09:46.743Z,1000.12
2017-08-05T03:10:46.737Z,1000.14
2017-08-05T03:11:46.733Z,1000.17
2017-08-05T03:12:46.716Z,1000.20
2017-08-05T03:13:47.066Z,1000.27
2017-08-05T03:14:46.725Z,1000.29
2017-08-05T03:15:46.702Z,1000.28
2017-08-05T03:16:46.693Z,1000.26
2017-08-05T03:17:46.686Z,1000.23
2017-08-05T03:18:46.679Z,1000.18
2017-08-05T03:19:47.032Z,1000.14
2017-08-05T03:20:46.651Z,1000.12
2017-08-05T03:21:46.650Z,1000.07
2017-08-05T03:22:46.636Z,1000.06
2017-08-05T03:23:46.638Z,1000.05
2017-08-05T03:24:46.618Z,1000.07
2017-08-05T03:25:46.849Z,1000.09
2017-08-05T03:26:46.604Z,1000.11
2017-08-05T03:27:46.596Z,1000.05
2017-08-05T03:28:46.599Z,1000.03
2017-08-05T03:29:46.592Z,999.99
2017-08-05T03:30:46.586Z,999.96
2017-08-05T03:31:47.032Z,1000.04
2017-08-05T03:32:46.571Z,1000.07
2017-08-05T03:33:46.565Z,1000.08
2017-08-05T03:34:46.555Z,1000.06
2017-08-05T03:35:46.535Z,1000.10
2017-08-05T03:36:46.538Z,1000.12
2017-08-05T03:37:46.843Z,1000.14
2017-08-05T03:38:46.508Z,1000.18
2017-08-05T03:39:46.520Z,1000.18
2017-08-05T03:40:46.492Z,1000.15
2017-08-05T03:41:46.484Z,1000.17
2017-08-05T03:42:46.488Z,1000.16
2017-08-05T03:43:46.509Z,1000.19
2017-08-05T03:44:46.459Z,1000.20
2017-08-05T03:45:46.472Z,1000.21
2017-08-05T03:46:46.445Z,1000.23
2017-08-05T03:47:46.484Z,1000.21
2017-08-05T03:48:46.429Z,1000.22
2017-08-05T03:49:46.426Z,1000.19
2017-08-05T03:50:46.423Z,1000.25
2017-08-05T03:51:46.407Z,1000.26
2017-08-05T03:52:46.428Z,1000.28
2017-08-05T03:53:46.395Z,1000.29
2017-08-05T03:54:46.394Z,1000.28
2017-08-05T03:55:46.385Z,1000.27
2017-08-05T03:56:46.362Z,1000.36
2017-08-05T03:57:46.787Z,1000.37
2017-08-05T03:58:46.356Z,1000.36
2017-08-05T03:59:46.346Z,1000.32
2017-08-05T04:00:46.334Z,1000.35
2017-08-05T04:01:46.334Z,1000.30
2017-08-05T04:02:46.329Z,1000.27
2017-08-05T04:03:46.627Z,1000.28
2017-08-05T04:04:46.312Z,1000.30
2017-08-05T04:05:46.310Z,1000.35
2017-08-05T04:06:46.286Z,1000.36
2017-08-05T04:07:46.279Z,1000.35
2017-08-05T04:08:46.279Z,1000.34
2017-08-05T04:09:46.697Z,1000.36
2017-08-05T04:10:46.262Z,1000.36
2017-08-05T04:11:46.249Z,1000.35
2017-08-05T04:12:46.252Z,1000.34
2017-08-05T04:13:46.244Z,1000.31
2017-08-05T04:14:46.222Z,1000.29
2017-08-05T04:15:46.588Z,1000.29
2017-08-05T04:16:46.203Z,1000.32
2017-08-05T04:17:46.215Z,1000.31
2017-08-05T04:18:46.194Z,1000.29
2017-08-05T04:19:46.198Z,1000.27
2017-08-05T04:20:46.184Z,1000.23
2017-08-05T04:21:46.531Z,1000.24
2017-08-05T04:22:46.159Z,1000.25
2017-08-05T04:23:46.159Z,1000.28
2017-08-05T04:24:46.151Z,1000.30
2017-08-05T04:25:46.147Z,1000.39
2017-08-05T04:26:46.125Z,1000.35
2017-08-05T04:27:46.155Z,1000.31
2017-08-05T04:28:46.129Z,1000.25
2017-08-05T04:29:46.111Z,1000.23
2017-08-05T04:30:46.111Z,1000.19
2017-08-05T04:31:46.086Z,1000.14
2017-08-05T04:32:46.533Z,1000.09
2017-08-05T04:33:46.064Z,1000.11
2017-08-05T04:34:46.058Z,1000.14
2017-08-05T04:35:46.051Z,1000.13
2017-08-05T04:36:46.055Z,1000.12
2017-08-05T04:37:46.047Z,1000.09
2017-08-05T04:38:46.056Z,1000.13
2017-08-05T04:39:46.027Z,1000.09
2017-08-05T04:40:46.020Z,1000.09
2017-08-05T04:41:46.010Z,1000.09
2017-08-05T04:42:46.006Z,1000.10
2017-08-05T04:43:46.381Z,1000.11
2017-08-05T04:44:45.991Z,1000.12
2017-08-05T04:45:45.983Z,1000.18
2017-08-05T04:46:45.962Z,1000.22
2017-08-05T04:47:45.965Z,1000.25
2017-08-05T04:48:45.959Z,1000.32
2017-08-05T04:49:46.351Z,1000.35
2017-08-05T04:50:45.941Z,1000.37
2017-08-05T04:51:45.923Z,1000.38
2017-08-05T04:52:45.929Z,1000.39
2017-08-05T04:53:45.905Z,1000.40
2017-08-05T04:54:45.908Z,1000.34
2017-08-05T04:55:46.335Z,1000.26
2017-08-05T04:56:45.888Z,1000.21
2017-08-05T04:57:45.883Z,1000.26
2017-08-05T04:58:45.866Z,1000.28
2017-08-05T04:59:45.859Z,1000.24
2017-08-05T05:00:45.863Z,1000.25
2017-08-05T05:01:46.176Z,1000.28
2017-08-05T05:02:45.832Z,1000.33
2017-08-05T05:03:45.838Z,1000.30
2017-08-05T05:04:45.819Z,1000.33
2017-08-05T05:05:45.825Z,1000.37
2017-08-05T05:06:45.799Z,1000.35
2017-08-05T05:07:46.112Z,1000.39
2017-08-05T05:08:45.800Z,1000.36
2017-08-05T05:09:45.787Z,1000.30
2017-08-05T05:10:45.768Z,1000.27
2017-08-05T05:11:45.785Z,1000.29
2017-08-05T05:12:45.768Z,1000.32
2017-08-05T05:13:46.044Z,1000.25
2017-08-05T05:14:45.736Z,1000.25
2017-08-05T05:15:45.740Z,1000.27
2017-08-05T05:16:45.730Z,1000.23
2017-08-05T05:17:45.711Z,1000.21
2017-08-05T05:18:45.716Z,1000.17
2017-08-05T05:19:46.164Z,1000.18
2017-08-05T05:20:45.690Z,1000.14
2017-08-05T05:21:45.690Z,1000.13
2017-08-05T05:22:45.670Z,1000.14
2017-08-05T05:23:45.672Z,1000.16
2017-08-05T05:24:45.657Z,1000.21
2017-08-05T05:25:45.965Z,1000.24
2017-08-05T05:26:46.492Z,1000.19
2017-08-05T05:27:45.646Z,1000.18
2017-08-05T05:28:45.623Z,1000.11
2017-08-05T05:29:45.614Z,1000.14
2017-08-05T05:30:45.616Z,1000.19
2017-08-05T05:31:46.064Z,1000.18
2017-08-05T05:32:45.593Z,1000.21
2017-08-05T05:33:45.596Z,1000.13
2017-08-05T05:34:45.588Z,1000.15
2017-08-05T05:35:45.569Z,1000.10
2017-08-05T05:36:45.560Z,1000.14
2017-08-05T05:37:45.929Z,1000.16
2017-08-05T05:38:45.562Z,1000.24
2017-08-05T05:39:45.549Z,1000.32
2017-08-05T05:40:45.539Z,1000.28
2017-08-05T05:41:45.534Z,1000.29
2017-08-05T05:42:45.525Z,1000.28
2017-08-05T05:43:45.962Z,1000.33
2017-08-05T05:44:45.523Z,1000.28
2017-08-05T05:45:45.758Z,1000.26
2017-08-05T05:46:45.486Z,1000.21
2017-08-05T05:47:45.482Z,1000.12
2017-08-05T05:48:45.470Z,1000.06
2017-08-05T05:49:45.827Z,1000.02
2017-08-05T05:50:45.460Z,1000.09
2017-08-05T05:51:45.438Z,1000.08
2017-08-05T05:52:45.432Z,1000.09
2017-08-05T05:53:45.430Z,1000.05
2017-08-05T05:54:45.428Z,1000.04
2017-08-05T05:55:45.629Z,1000.10
2017-08-05T05:56:45.399Z,1000.12
2017-08-05T05:57:45.392Z,1000.12
2017-08-05T05:58:45.395Z,1000.16
2017-08-05T05:59:45.392Z,1000.10
2017-08-05T06:00:45.384Z,1000.05
2017-08-05T06:01:45.833Z,1000.04
2017-08-05T06:02:45.364Z,1000.05
2017-08-05T06:03:45.354Z,1000.03
2017-08-05T06:04:45.340Z,1000.06
2017-08-05T06:05:45.340Z,1000.09
2017-08-05T06:06:45.348Z,1000.14
2017-08-05T06:07:45.685Z,1000.16
2017-08-05T06:08:45.312Z,1000.17
2017-08-05T06:09:45.299Z,1000.11
2017-08-05T06:10:45.314Z,1000.11
2017-08-05T06:11:45.292Z,1000.08
2017-08-05T06:12:45.283Z,1000.04
2017-08-05T06:13:45.727Z,1000.03
2017-08-05T06:14:45.271Z,1000.07
2017-08-05T06:15:45.265Z,1000.10
2017-08-05T06:16:45.254Z,1000.12
2017-08-05T06:17:45.251Z,1000.09
2017-08-05T06:18:45.229Z,1000.03
2017-08-05T06:19:45.530Z,1000.00
2017-08-05T06:20:45.213Z,1000.02
2017-08-05T06:21:45.216Z,999.99
2017-08-05T06:22:45.199Z,1000.03
2017-08-05T06:23:45.187Z,1000.07
2017-08-05T06:24:45.191Z,1000.07
2017-08-05T06:25:45.536Z,1000.09
2017-08-05T06:26:45.192Z,1000.10
2017-08-05T06:27:45.161Z,1000.11
2017-08-05T06:28:45.162Z,1000.07
2017-08-05T06:29:45.142Z,1000.06
2017-08-05T06:30:45.141Z,1000.09
2017-08-05T06:31:45.164Z,1000.11
2017-08-05T06:32:45.130Z,1000.13
2017-08-05T06:33:45.414Z,1000.13
2017-08-05T06:34:45.114Z,1000.14
2017-08-05T06:35:45.096Z,1000.11
2017-08-05T06:36:45.088Z,1000.14
2017-08-05T06:37:45.084Z,1000.17
2017-08-05T06:38:45.081Z,1000.19
2017-08-05T06:39:45.325Z,1000.20
2017-08-05T06:40:45.059Z,1000.26
2017-08-05T06:41:45.051Z,1000.28
2017-08-05T06:42:45.047Z,1000.28
2017-08-05T06:43:45.038Z,1000.24
2017-08-05T06:44:45.036Z,1000.23
2017-08-05T06:45:45.412Z,1000.23
2017-08-05T06:46:45.021Z,1000.23
2017-08-05T06:47:45.015Z,1000.24
2017-08-05T06:48:44.997Z,1000.26
2017-08-05T06:49:44.996Z,1000.27
2017-08-05T06:50:44.980Z,1000.28
2017-08-05T06:51:45.329Z,1000.21
2017-08-05T06:52:44.985Z,1000.22
2017-08-05T06:53:44.982Z,1000.18
2017-08-05T06:54:44.968Z,1000.11
2017-08-05T06:55:44.939Z,1000.08
2017-08-05T06:56:44.943Z,1000.11
2017-08-05T06:57:45.310Z,1000.11
2017-08-05T06:58:44.935Z,1000.13
2017-08-05T06:59:44.914Z,1000.10
2017-08-05T07:00:44.903Z,1000.17
2017-08-05T07:01:44.906Z,1000.18
2017-08-05T07:02:44.885Z,1000.14
2017-08-05T07:03:45.325Z,1000.13
2017-08-05T07:04:44.868Z,1000.10
2017-08-05T07:05:44.870Z,1000.11
2017-08-05T07:06:44.868Z,1000.05
2017-08-05T07:07:44.850Z,1000.00
2017-08-05T07:08:44.852Z,1000.01
2017-08-05T07:09:44.883Z,999.99
2017-08-05T07:10:44.827Z,999.88
2017-08-05T07:11:44.831Z,999.81
2017-08-05T07:12:44.820Z,999.79
2017-08-05T07:13:45.183Z,999.76
2017-08-05T07:14:44.791Z,999.72
2017-08-05T07:15:44.794Z,999.71
2017-08-05T07:16:44.787Z,999.67
2017-08-05T07:17:44.784Z,999.63
2017-08-05T07:18:44.766Z,999.64
2017-08-05T07:19:44.803Z,999.67
2017-08-05T07:20:44.771Z,999.66
2017-08-05T07:21:44.769Z,999.74
2017-08-05T07:22:44.737Z,999.77
2017-08-05T07:23:44.736Z,999.83
2017-08-05T07:24:45.196Z,999.83
2017-08-05T07:25:44.709Z,999.96
2017-08-05T07:26:44.712Z,1000.02
2017-08-05T07:27:44.709Z,1000.08
2017-08-05T07:28:44.686Z,1000.10
2017-08-05T07:29:44.689Z,1000.12
2017-08-05T07:30:44.901Z,1000.12
2017-08-05T07:31:44.659Z,1000.20
2017-08-05T07:32:44.652Z,1000.25
2017-08-05T07:33:44.656Z,1000.27
2017-08-05T07:34:44.635Z,1000.27
2017-08-05T07:35:44.642Z,1000.24
2017-08-05T07:36:44.858Z,1000.29
2017-08-05T07:37:44.625Z,1000.30
2017-08-05T07:38:44.606Z,1000.31
2017-08-05T07:39:44.608Z,1000.32
2017-08-05T07:40:44.593Z,1000.28
2017-08-05T07:41:44.610Z,1000.25
2017-08-05T07:42:44.620Z,1000.22
2017-08-05T07:43:44.582Z,1000.23
2017-08-05T07:44:50.903Z,1000.22
2017-08-05T07:45:46.039Z,1000.23
2017-08-05T07:46:45.029Z,1000.26
2017-08-05T07:47:44.808Z,1000.24
2017-08-05T07:48:44.984Z,1000.28
2017-08-05T07:49:45.158Z,1000.30
2017-08-05T07:50:44.579Z,1000.31
2017-08-05T07:51:45.082Z,1000.34
2017-08-05T07:52:44.498Z,1000.37
2017-08-05T07:53:44.515Z,1000.36
2017-08-05T07:54:44.492Z,1000.33
2017-08-05T07:55:44.692Z,1000.29
2017-08-05T07:56:44.469Z,1000.31
2017-08-05T07:57:45.248Z,1000.32
2017-08-05T07:58:45.194Z,1000.28
2017-08-05T07:59:44.452Z,1000.29
2017-08-05T08:00:44.437Z,1000.25
2017-08-05T08:01:44.455Z,1000.15
2017-08-05T08:02:45.233Z,1000.11
2017-08-05T08:03:45.003Z,1000.07
2017-08-05T08:04:44.415Z,1000.03
2017-08-05T08:05:45.949Z,1000.11
2017-08-05T08:06:45.162Z,1000.12
2017-08-05T08:07:44.380Z,1000.21
2017-08-05T08:08:44.389Z,1000.22
2017-08-05T08:09:44.365Z,1000.28
2017-08-05T08:10:44.356Z,1000.28
2017-08-05T08:11:44.578Z,1000.30
2017-08-05T08:12:44.349Z,1000.32
2017-08-05T08:13:44.334Z,1000.34
2017-08-05T08:14:44.340Z,1000.39
2017-08-05T08:15:44.319Z,1000.41
2017-08-05T08:16:44.307Z,1000.41
2017-08-05T08:17:44.332Z,1000.43
2017-08-05T08:18:44.303Z,1000.44
2017-08-05T08:19:54.045Z,1000.37
2017-08-05T08:20:45.507Z,1000.25
2017-08-05T08:21:45.705Z,1000.20
2017-08-05T08:22:44.330Z,1000.16
2017-08-05T08:23:44.323Z,1000.17
2017-08-05T08:24:45.144Z,1000.20
2017-08-05T08:25:45.075Z,1000.19
2017-08-05T08:26:44.230Z,1000.24
2017-08-05T08:27:44.963Z,1000.17
2017-08-05T08:28:44.228Z,1000.17
2017-08-05T08:29:44.237Z,1000.18
2017-08-05T08:30:46.150Z,1000.16
2017-08-05T08:31:44.262Z,1000.17
2017-08-05T08:32:44.230Z,1000.21
2017-08-05T08:33:44.402Z,1000.20
2017-08-05T08:34:44.477Z,1000.25
2017-08-05T08:35:44.391Z,1000.24
2017-08-05T08:36:44.894Z,1000.29
2017-08-05T08:37:44.462Z,1000.29
2017-08-05T08:38:44.658Z,1000.27
2017-08-05T08:39:45.583Z,1000.25
2017-08-05T08:40:44.388Z,1000.21
2017-08-05T08:41:44.132Z,1000.26
2017-08-05T08:42:44.111Z,1000.19
2017-08-05T08:43:44.906Z,1000.21
2017-08-05T08:44:44.364Z,1000.21
2017-08-05T08:45:47.505Z,1000.19
2017-08-05T08:46:44.858Z,1000.23
2017-08-05T08:47:44.497Z,1000.26
2017-08-05T08:48:44.225Z,1000.20
2017-08-05T08:49:44.297Z,1000.18
2017-08-05T08:50:44.332Z,1000.20
2017-08-05T08:51:44.510Z,1000.20
2017-08-05T08:52:44.863Z,1000.20
2017-08-05T08:53:44.702Z,1000.16
2017-08-05T08:54:44.008Z,1000.13
2017-08-05T08:55:43.997Z,1000.11
2017-08-05T08:56:44.001Z,1000.11
2017-08-05T08:57:44.379Z,1000.09
2017-08-05T08:58:43.989Z,1000.13
2017-08-05T08:59:43.996Z,1000.09
2017-08-05T09:00:43.966Z,1000.13
2017-08-05T09:01:44.751Z,1000.17
2017-08-05T09:02:44.569Z,1000.22
2017-08-05T09:03:44.557Z,1000.21
2017-08-05T09:04:44.674Z,1000.18
2017-08-05T09:05:44.981Z,1000.18
2017-08-05T09:06:44.630Z,1000.15
2017-08-05T09:07:44.569Z,1000.14
2017-08-05T09:08:44.598Z,1000.11
2017-08-05T09:09:45.069Z,1000.12
2017-08-05T09:10:45.106Z,1000.15
2017-08-05T09:11:44.676Z,1000.12
2017-08-05T09:12:43.874Z,1000.14
2017-08-05T09:26:38.140Z,999.88
2017-08-05T09:27:37.467Z,999.90
2017-08-05T09:28:38.046Z,999.95
2017-08-05T09:29:37.224Z,999.98
2017-08-05T09:30:37.216Z,1000.02
2017-08-05T09:31:37.209Z,1000.02
2017-08-05T09:32:37.508Z,1000.06
2017-08-05T09:33:37.188Z,1000.04
2017-08-05T09:34:37.183Z,1000.01
2017-08-05T09:35:37.160Z,999.98
2017-08-05T09:36:37.151Z,1000.02
2017-08-05T09:37:37.161Z,999.99
2017-08-05T09:38:37.575Z,1000.00
2017-08-05T09:39:37.142Z,999.99
2017-08-05T09:40:37.150Z,1000.04
2017-08-05T09:41:37.129Z,1000.05
2017-08-05T09:42:37.116Z,1000.10
2017-08-05T09:43:37.110Z,1000.10
2017-08-05T09:44:37.471Z,1000.09
2017-08-05T09:45:37.080Z,1000.06
2017-08-05T09:46:37.072Z,1000.01
2017-08-05T09:47:37.093Z,999.93
2017-08-05T09:52:42.251Z,999.93
2017-08-05T09:53:41.869Z,999.93
2017-08-05T09:54:40.991Z,999.99
2017-08-05T09:55:40.981Z,1000.03
2017-08-05T09:56:41.610Z,1000.07
2017-08-05T09:57:41.230Z,1000.08
2017-08-05T09:58:41.237Z,1000.11
2017-08-05T09:59:40.957Z,1000.19
2017-08-05T10:00:40.936Z,1000.20
2017-08-05T10:01:40.937Z,1000.14
2017-08-05T10:02:41.755Z,1000.03
2017-08-05T10:03:41.416Z,999.89
2017-08-05T10:04:42.463Z,999.87
2017-08-05T10:05:41.699Z,999.89
2017-08-05T10:06:40.892Z,999.92
2017-08-05T10:07:40.892Z,999.81
2017-08-05T10:08:41.648Z,999.82
2017-08-05T10:09:41.194Z,999.81
2017-08-05T10:10:41.524Z,999.85
2017-08-05T10:11:41.345Z,1000.00
2017-08-05T10:12:41.382Z,1000.11
2017-08-05T10:13:41.541Z,1000.18
2017-08-05T10:14:41.400Z,1000.20
2017-08-05T10:15:40.985Z,1000.16
2017-08-05T10:16:42.387Z,1000.11
2017-08-05T10:17:41.446Z,1000.11
2017-08-05T10:18:40.831Z,1000.15
2017-08-05T10:19:40.790Z,1000.23
2017-08-05T10:20:40.800Z,1000.24
2017-08-05T10:21:40.780Z,1000.31
2017-08-05T10:22:40.814Z,1000.32
2017-08-05T10:23:41.207Z,1000.36
2017-08-05T10:24:40.757Z,1000.43
2017-08-05T10:25:41.512Z,1000.47
2017-08-05T10:26:42.228Z,1000.57
2017-08-05T10:27:41.155Z,1000.56
2017-08-05T10:28:40.825Z,1000.56
2017-08-05T10:29:41.104Z,1000.59
2017-08-05T10:30:41.327Z,1000.55
2017-08-05T10:31:40.730Z,1000.52
2017-08-05T10:32:40.902Z,1000.39
2017-08-05T10:33:40.817Z,1000.33
2017-08-05T10:34:40.834Z,1000.26
2017-08-05T10:35:40.936Z,1000.27
2017-08-05T10:36:41.024Z,1000.34
2017-08-05T10:37:41.406Z,1000.40
2017-08-05T10:38:41.457Z,1000.44
2017-08-05T10:39:40.741Z,1000.43
2017-08-05T10:40:40.723Z,1000.46
2017-08-05T10:41:40.773Z,1000.46
2017-08-05T10:42:40.814Z,1000.41
2017-08-05T10:43:40.829Z,1000.42
2017-08-05T10:44:41.142Z,1000.39
2017-08-05T10:45:41.370Z,1000.34
2017-08-05T10:46:41.044Z,1000.35
2017-08-05T10:47:40.746Z,1000.31
2017-08-05T10:48:40.791Z,1000.31
2017-08-05T10:49:40.853Z,1000.27
2017-08-05T10:50:41.637Z,1000.25
2017-08-05T10:51:40.832Z,1000.26
2017-08-05T10:52:40.951Z,1000.28
2017-08-05T10:53:41.345Z,1000.25
2017-08-05T10:54:41.316Z,1000.24
2017-08-05T10:55:40.856Z,1000.26
2017-08-05T10:56:41.302Z,1000.25
2017-08-05T10:57:40.949Z,1000.25
2017-08-05T10:58:40.561Z,1000.20
2017-08-05T10:59:40.643Z,1000.27
2017-08-05T11:00:40.642Z,1000.34
2017-08-05T11:01:40.494Z,1000.37
2017-08-05T11:02:42.115Z,1000.34
2017-08-05T11:03:41.283Z,1000.35
2017-08-05T11:04:40.630Z,1000.29
2017-08-05T11:05:40.942Z,1000.30
2017-08-05T11:06:41.245Z,1000.28
2017-08-05T11:07:41.158Z,1000.34
2017-08-05T11:08:40.597Z,1000.33
2017-08-05T11:09:40.475Z,1000.34
2017-08-05T11:10:40.485Z,1000.39
2017-08-05T11:11:40.501Z,1000.39
2017-08-05T11:12:41.073Z,1000.38
2017-08-05T11:13:40.392Z,1000.41
2017-08-05T11:14:40.372Z,1000.38
2017-08-05T11:15:41.181Z,1000.34
2017-08-05T11:16:41.164Z,1000.34
2017-08-05T11:17:40.461Z,1000.34
2017-08-05T11:18:41.548Z,1000.37
2017-08-05T11:19:40.855Z,1000.36
2017-08-05T11:20:41.122Z,1000.35
2017-08-05T11:21:40.900Z,1000.39
2017-08-05T11:22:41.054Z,1000.37
2017-08-05T11:23:41.339Z,1000.36
2017-08-05T11:24:41.002Z,1000.38
2017-08-05T11:25:40.685Z,1000.36
2017-08-05T11:26:41.042Z,1000.35
2017-08-05T11:27:40.996Z,1000.39
2017-08-05T11:28:41.100Z,1000.33
2017-08-05T11:29:40.752Z,1000.38
2017-08-05T11:30:40.280Z,1000.39
2017-08-05T11:31:40.322Z,1000.34
2017-08-05T11:32:40.378Z,1000.32
2017-08-05T11:33:40.981Z,1000.30
2017-08-05T11:34:40.529Z,1000.29
2017-08-05T11:35:40.593Z,1000.26
2017-08-05T11:36:40.220Z,1000.22
2017-08-05T11:37:40.218Z,1000.23
2017-08-05T11:38:40.202Z,1000.22
2017-08-05T11:39:40.202Z,1000.17
2017-08-05T11:40:40.318Z,1000.14
2017-08-05T11:41:41.790Z,1000.17
2017-08-05T11:42:40.974Z,1000.17
2017-08-05T11:43:40.244Z,1000.16
2017-08-05T11:44:40.578Z,1000.09
2017-08-05T11:45:40.552Z,1000.03
2017-08-05T11:46:40.958Z,1000.02
2017-08-05T11:47:40.636Z,1000.05
2017-08-05T11:48:40.127Z,1000.07
2017-08-05T11:49:40.119Z,1000.19
2017-08-05T11:50:40.106Z,1000.20
2017-08-05T11:51:40.102Z,1000.22
2017-08-05T11:52:40.108Z,1000.24
2017-08-05T11:53:40.546Z,1000.28
2017-08-05T11:54:40.095Z,1000.30
2017-08-05T11:55:40.088Z,1000.32
2017-08-05T11:56:40.878Z,1000.35
2017-08-05T11:57:40.484Z,1000.31
2017-08-05T11:58:40.052Z,1000.28
2017-08-05T11:59:40.497Z,1000.31
2017-08-05T12:00:40.039Z,1000.31
2017-08-05T12:01:40.090Z,1000.36
2017-08-05T12:02:40.041Z,1000.38
2017-08-05T12:03:40.026Z,1000.40
2017-08-05T12:04:40.769Z,1000.40
2017-08-05T12:05:40.442Z,1000.42
2017-08-05T12:06:40.012Z,1000.43
2017-08-05T12:07:40.787Z,1000.46
2017-08-05T12:08:40.010Z,1000.49
2017-08-05T12:09:40.046Z,1000.54
2017-08-05T12:10:39.968Z,1000.53
2017-08-05T12:11:40.760Z,1000.53
2017-08-05T12:12:40.741Z,1000.53
2017-08-05T12:13:39.959Z,1000.51
2017-08-05T12:14:40.024Z,1000.54
2017-08-05T12:15:39.942Z,1000.55
2017-08-05T12:16:39.928Z,1000.57
2017-08-05T12:17:40.953Z,1000.54
2017-08-05T12:18:40.386Z,1000.52
2017-08-05T12:19:40.595Z,1000.45
2017-08-05T12:20:40.691Z,1000.48
2017-08-05T12:21:40.676Z,1000.50
2017-08-05T12:22:40.345Z,1000.51
2017-08-05T12:23:39.877Z,1000.52
2017-08-05T12:24:40.676Z,1000.52